sensor_id;sensor_type;location;lat;lon;timestamp;temperature;humidity
71047;SHT31;58703;48.978;8.982;2023-05-19T00:01:40;10.18;73.64
71047;SHT31;58703;48.978;8.982;2023-05-19T00:04:09;10.17;73.72
71047;SHT31;58703;48.978;8.982;2023-05-19T00:06:37;10.24;73.45
71047;SHT31;58703;48.978;8.982;2023-05-19T00:09:09;10.20;73.87
71047;SHT31;58703;48.978;8.982;2023-05-19T00:11:38;10.06;74.16
71047;SHT31;58703;48.978;8.982;2023-05-19T00:14:08;10.17;73.88
71047;SHT31;58703;48.978;8.982;2023-05-19T00:16:35;10.21;73.54
71047;SHT31;58703;48.978;8.982;2023-05-19T00:19:04;10.18;73.70
71047;SHT31;58703;48.978;8.982;2023-05-19T00:21:30;10.22;73.52
71047;SHT31;58703;48.978;8.982;2023-05-19T00:23:56;10.27;73.43
71047;SHT31;58703;48.978;8.982;2023-05-19T00:26:22;10.33;73.07
71047;SHT31;58703;48.978;8.982;2023-05-19T00:28:50;10.41;72.70
71047;SHT31;58703;48.978;8.982;2023-05-19T00:31:16;10.51;72.53
71047;SHT31;58703;48.978;8.982;2023-05-19T00:33:42;10.47;72.56
71047;SHT31;58703;48.978;8.982;2023-05-19T00:36:07;10.52;72.31
71047;SHT31;58703;48.978;8.982;2023-05-19T00:38:35;10.45;72.59
71047;SHT31;58703;48.978;8.982;2023-05-19T00:41:03;10.36;72.81
71047;SHT31;58703;48.978;8.982;2023-05-19T00:43:30;10.31;72.98
71047;SHT31;58703;48.978;8.982;2023-05-19T00:45:57;10.24;73.23
71047;SHT31;58703;48.978;8.982;2023-05-19T00:48:24;10.25;73.19
71047;SHT31;58703;48.978;8.982;2023-05-19T00:50:50;10.24;73.08
71047;SHT31;58703;48.978;8.982;2023-05-19T00:53:17;10.36;72.75
71047;SHT31;58703;48.978;8.982;2023-05-19T00:55:44;10.24;73.29
71047;SHT31;58703;48.978;8.982;2023-05-19T00:58:11;10.14;73.72
71047;SHT31;58703;48.978;8.982;2023-05-19T01:00:38;9.97;74.58
71047;SHT31;58703;48.978;8.982;2023-05-19T01:03:05;9.97;74.36
71047;SHT31;58703;48.978;8.982;2023-05-19T01:05:41;9.96;74.45
71047;SHT31;58703;48.978;8.982;2023-05-19T01:08:09;9.85;75.27
71047;SHT31;58703;48.978;8.982;2023-05-19T01:10:34;9.75;75.41
71047;SHT31;58703;48.978;8.982;2023-05-19T01:13:04;9.67;75.47
71047;SHT31;58703;48.978;8.982;2023-05-19T01:15:55;9.69;75.43
71047;SHT31;58703;48.978;8.982;2023-05-19T01:21:30;9.75;75.23
71047;SHT31;58703;48.978;8.982;2023-05-19T01:32:10;9.73;75.43
71047;SHT31;58703;48.978;8.982;2023-05-19T01:34:41;9.73;75.67
71047;SHT31;58703;48.978;8.982;2023-05-19T01:37:10;9.91;74.80
71047;SHT31;58703;48.978;8.982;2023-05-19T01:39:37;9.86;74.94
71047;SHT31;58703;48.978;8.982;2023-05-19T01:42:05;9.83;75.19
71047;SHT31;58703;48.978;8.982;2023-05-19T01:44:32;9.90;74.92
71047;SHT31;58703;48.978;8.982;2023-05-19T01:46:58;9.73;75.93
71047;SHT31;58703;48.978;8.982;2023-05-19T01:49:24;9.62;76.38
71047;SHT31;58703;48.978;8.982;2023-05-19T01:51:51;9.52;76.72
71047;SHT31;58703;48.978;8.982;2023-05-19T01:54:18;9.38;77.47
71047;SHT31;58703;48.978;8.982;2023-05-19T01:56:51;9.42;77.00
71047;SHT31;58703;48.978;8.982;2023-05-19T01:59:43;9.38;77.38
71047;SHT31;58703;48.978;8.982;2023-05-19T02:02:29;9.48;76.67
71047;SHT31;58703;48.978;8.982;2023-05-19T02:05:15;9.50;76.52
71047;SHT31;58703;48.978;8.982;2023-05-19T02:07:58;9.45;76.76
71047;SHT31;58703;48.978;8.982;2023-05-19T02:10:27;9.45;76.93
71047;SHT31;58703;48.978;8.982;2023-05-19T02:13:00;9.46;76.77
71047;SHT31;58703;48.978;8.982;2023-05-19T02:15:29;9.45;76.79
71047;SHT31;58703;48.978;8.982;2023-05-19T02:17:57;9.50;76.50
71047;SHT31;58703;48.978;8.982;2023-05-19T02:20:25;9.49;76.70
71047;SHT31;58703;48.978;8.982;2023-05-19T02:22:51;9.52;76.65
71047;SHT31;58703;48.978;8.982;2023-05-19T02:25:16;9.48;76.71
71047;SHT31;58703;48.978;8.982;2023-05-19T02:27:42;9.55;76.35
71047;SHT31;58703;48.978;8.982;2023-05-19T02:30:08;9.59;76.15
71047;SHT31;58703;48.978;8.982;2023-05-19T02:32:34;9.62;76.30
71047;SHT31;58703;48.978;8.982;2023-05-19T02:35:01;9.62;76.46
71047;SHT31;58703;48.978;8.982;2023-05-19T02:37:28;9.69;75.96
71047;SHT31;58703;48.978;8.982;2023-05-19T02:39:53;9.76;75.86
71047;SHT31;58703;48.978;8.982;2023-05-19T02:42:20;9.73;76.12
71047;SHT31;58703;48.978;8.982;2023-05-19T02:44:46;9.73;75.90
71047;SHT31;58703;48.978;8.982;2023-05-19T02:47:12;9.94;74.86
71047;SHT31;58703;48.978;8.982;2023-05-19T02:49:39;9.89;75.54
71047;SHT31;58703;48.978;8.982;2023-05-19T02:52:06;9.86;75.37
71047;SHT31;58703;48.978;8.982;2023-05-19T02:54:33;9.96;74.70
71047;SHT31;58703;48.978;8.982;2023-05-19T02:57:00;9.89;75.39
71047;SHT31;58703;48.978;8.982;2023-05-19T02:59:27;9.79;75.81
71047;SHT31;58703;48.978;8.982;2023-05-19T03:02:01;9.85;75.07
71047;SHT31;58703;48.978;8.982;2023-05-19T03:04:28;9.90;75.03
71047;SHT31;58703;48.978;8.982;2023-05-19T03:06:55;9.80;75.91
71047;SHT31;58703;48.978;8.982;2023-05-19T03:09:23;9.69;76.38
71047;SHT31;58703;48.978;8.982;2023-05-19T03:11:48;9.73;75.97
71047;SHT31;58703;48.978;8.982;2023-05-19T03:14:14;9.77;75.77
71047;SHT31;58703;48.978;8.982;2023-05-19T03:16:40;9.67;76.16
71047;SHT31;58703;48.978;8.982;2023-05-19T03:19:08;9.77;75.64
71047;SHT31;58703;48.978;8.982;2023-05-19T03:21:33;9.75;75.95
71047;SHT31;58703;48.978;8.982;2023-05-19T03:24:00;9.67;76.16
71047;SHT31;58703;48.978;8.982;2023-05-19T03:26:26;9.62;76.54
71047;SHT31;58703;48.978;8.982;2023-05-19T03:28:55;9.55;76.85
71047;SHT31;58703;48.978;8.982;2023-05-19T03:31:22;9.39;77.59
71047;SHT31;58703;48.978;8.982;2023-05-19T03:33:48;9.42;77.51
71047;SHT31;58703;48.978;8.982;2023-05-19T03:36:15;9.46;77.47
71047;SHT31;58703;48.978;8.982;2023-05-19T03:38:43;9.46;77.26
71047;SHT31;58703;48.978;8.982;2023-05-19T03:41:09;9.38;77.61
71047;SHT31;58703;48.978;8.982;2023-05-19T03:43:36;9.35;77.61
71047;SHT31;58703;48.978;8.982;2023-05-19T03:46:03;9.34;77.68
71047;SHT31;58703;48.978;8.982;2023-05-19T03:48:30;9.32;77.73
71047;SHT31;58703;48.978;8.982;2023-05-19T03:50:56;9.31;77.73
71047;SHT31;58703;48.978;8.982;2023-05-19T03:53:22;9.24;77.76
71047;SHT31;58703;48.978;8.982;2023-05-19T03:55:49;9.22;78.00
71047;SHT31;58703;48.978;8.982;2023-05-19T03:58:15;9.24;77.89
71047;SHT31;58703;48.978;8.982;2023-05-19T04:00:41;9.21;78.11
71047;SHT31;58703;48.978;8.982;2023-05-19T04:03:06;9.14;78.27
71047;SHT31;58703;48.978;8.982;2023-05-19T04:05:33;9.14;78.38
71047;SHT31;58703;48.978;8.982;2023-05-19T04:07:58;9.03;78.88
71047;SHT31;58703;48.978;8.982;2023-05-19T04:10:24;9.04;78.64
71047;SHT31;58703;48.978;8.982;2023-05-19T04:12:51;9.10;78.86
71047;SHT31;58703;48.978;8.982;2023-05-19T04:15:18;9.15;78.07
71047;SHT31;58703;48.978;8.982;2023-05-19T04:17:44;9.18;78.14
71047;SHT31;58703;48.978;8.982;2023-05-19T04:20:12;9.14;78.62
71047;SHT31;58703;48.978;8.982;2023-05-19T04:22:39;9.14;78.45
71047;SHT31;58703;48.978;8.982;2023-05-19T04:25:06;9.16;78.05
71047;SHT31;58703;48.978;8.982;2023-05-19T04:27:34;9.29;77.35
71047;SHT31;58703;48.978;8.982;2023-05-19T04:30:07;9.39;77.00
71047;SHT31;58703;48.978;8.982;2023-05-19T04:32:34;9.42;77.14
71047;SHT31;58703;48.978;8.982;2023-05-19T04:35:02;9.43;77.78
71047;SHT31;58703;48.978;8.982;2023-05-19T04:37:30;9.53;76.17
71047;SHT31;58703;48.978;8.982;2023-05-19T04:39:55;9.69;75.35
71047;SHT31;58703;48.978;8.982;2023-05-19T04:42:22;9.82;74.83
71047;SHT31;58703;48.978;8.982;2023-05-19T04:44:50;9.87;74.89
71047;SHT31;58703;48.978;8.982;2023-05-19T04:47:17;9.89;74.72
71047;SHT31;58703;48.978;8.982;2023-05-19T04:49:45;9.97;74.40
71047;SHT31;58703;48.978;8.982;2023-05-19T04:52:11;10.06;74.12
71047;SHT31;58703;48.978;8.982;2023-05-19T04:54:38;10.07;74.08
71047;SHT31;58703;48.978;8.982;2023-05-19T04:57:04;10.17;73.98
71047;SHT31;58703;48.978;8.982;2023-05-19T04:59:31;10.22;74.34
71047;SHT31;58703;48.978;8.982;2023-05-19T05:01:57;10.31;74.05
71047;SHT31;58703;48.978;8.982;2023-05-19T05:04:22;10.40;74.01
71047;SHT31;58703;48.978;8.982;2023-05-19T05:06:48;10.47;73.80
71047;SHT31;58703;48.978;8.982;2023-05-19T05:09:15;10.51;73.50
71047;SHT31;58703;48.978;8.982;2023-05-19T05:11:41;10.64;73.06
71047;SHT31;58703;48.978;8.982;2023-05-19T05:14:09;10.71;72.96
71047;SHT31;58703;48.978;8.982;2023-05-19T05:16:35;10.75;72.62
71047;SHT31;58703;48.978;8.982;2023-05-19T05:19:02;10.73;72.21
71047;SHT31;58703;48.978;8.982;2023-05-19T05:21:28;10.73;72.35
71047;SHT31;58703;48.978;8.982;2023-05-19T05:23:57;10.79;72.52
71047;SHT31;58703;48.978;8.982;2023-05-19T05:26:29;10.83;72.27
71047;SHT31;58703;48.978;8.982;2023-05-19T05:28:54;10.93;72.25
71047;SHT31;58703;48.978;8.982;2023-05-19T05:31:21;10.96;72.32
71047;SHT31;58703;48.978;8.982;2023-05-19T05:33:47;11.02;71.90
71047;SHT31;58703;48.978;8.982;2023-05-19T05:36:12;11.18;71.96
71047;SHT31;58703;48.978;8.982;2023-05-19T05:38:38;11.26;71.59
71047;SHT31;58703;48.978;8.982;2023-05-19T05:41:05;11.24;71.62
71047;SHT31;58703;48.978;8.982;2023-05-19T05:43:31;11.42;71.04
71047;SHT31;58703;48.978;8.982;2023-05-19T05:45:57;11.71;70.46
71047;SHT31;58703;48.978;8.982;2023-05-19T05:48:23;11.97;69.73
71047;SHT31;58703;48.978;8.982;2023-05-19T05:50:49;12.02;69.69
71047;SHT31;58703;48.978;8.982;2023-05-19T05:53:19;12.21;68.90
71047;SHT31;58703;48.978;8.982;2023-05-19T05:55:49;12.36;68.27
71047;SHT31;58703;48.978;8.982;2023-05-19T05:58:15;12.69;67.82
71047;SHT31;58703;48.978;8.982;2023-05-19T06:00:42;13.07;67.32
71047;SHT31;58703;48.978;8.982;2023-05-19T06:03:09;13.48;66.63
71047;SHT31;58703;48.978;8.982;2023-05-19T06:05:36;13.83;65.30
71047;SHT31;58703;48.978;8.982;2023-05-19T06:08:01;14.13;64.92
71047;SHT31;58703;48.978;8.982;2023-05-19T06:10:29;13.85;64.20
71047;SHT31;58703;48.978;8.982;2023-05-19T06:12:54;13.78;65.88
71047;SHT31;58703;48.978;8.982;2023-05-19T06:15:21;13.85;65.03
71047;SHT31;58703;48.978;8.982;2023-05-19T06:17:48;13.68;66.05
71047;SHT31;58703;48.978;8.982;2023-05-19T06:20:14;13.82;65.42
71047;SHT31;58703;48.978;8.982;2023-05-19T06:22:41;14.18;65.31
71047;SHT31;58703;48.978;8.982;2023-05-19T06:25:08;14.04;64.90
71047;SHT31;58703;48.978;8.982;2023-05-19T06:27:34;14.28;64.81
71047;SHT31;58703;48.978;8.982;2023-05-19T06:30:00;13.78;64.74
71047;SHT31;58703;48.978;8.982;2023-05-19T06:32:27;13.43;66.01
71047;SHT31;58703;48.978;8.982;2023-05-19T06:34:55;14.09;65.59
71047;SHT31;58703;48.978;8.982;2023-05-19T06:37:22;14.23;64.12
71047;SHT31;58703;48.978;8.982;2023-05-19T06:39:52;14.46;63.96
71047;SHT31;58703;48.978;8.982;2023-05-19T06:42:20;14.70;64.21
71047;SHT31;58703;48.978;8.982;2023-05-19T06:44:51;13.91;65.39
71047;SHT31;58703;48.978;8.982;2023-05-19T06:47:18;13.57;66.83
71047;SHT31;58703;48.978;8.982;2023-05-19T06:49:44;13.75;65.97
71047;SHT31;58703;48.978;8.982;2023-05-19T06:52:11;14.02;66.50
71047;SHT31;58703;48.978;8.982;2023-05-19T06:54:37;14.18;65.06
71047;SHT31;58703;48.978;8.982;2023-05-19T06:57:04;14.18;65.58
71047;SHT31;58703;48.978;8.982;2023-05-19T06:59:29;13.82;65.56
71047;SHT31;58703;48.978;8.982;2023-05-19T07:01:55;14.19;65.55
71047;SHT31;58703;48.978;8.982;2023-05-19T07:04:20;14.42;65.07
71047;SHT31;58703;48.978;8.982;2023-05-19T07:06:47;15.32;63.27
71047;SHT31;58703;48.978;8.982;2023-05-19T07:09:15;15.45;62.20
71047;SHT31;58703;48.978;8.982;2023-05-19T07:11:41;16.31;60.87
71047;SHT31;58703;48.978;8.982;2023-05-19T07:14:07;16.70;58.99
71047;SHT31;58703;48.978;8.982;2023-05-19T07:16:33;16.53;60.34
71047;SHT31;58703;48.978;8.982;2023-05-19T07:18:59;16.54;59.23
71047;SHT31;58703;48.978;8.982;2023-05-19T07:21:26;16.57;59.46
71047;SHT31;58703;48.978;8.982;2023-05-19T07:23:53;15.75;61.69
71047;SHT31;58703;48.978;8.982;2023-05-19T07:26:20;15.85;61.59
71047;SHT31;58703;48.978;8.982;2023-05-19T07:28:48;15.92;61.27
71047;SHT31;58703;48.978;8.982;2023-05-19T07:31:13;16.16;60.83
71047;SHT31;58703;48.978;8.982;2023-05-19T07:33:40;16.41;59.77
71047;SHT31;58703;48.978;8.982;2023-05-19T07:36:05;16.46;59.81
71047;SHT31;58703;48.978;8.982;2023-05-19T07:38:33;16.40;59.78
71047;SHT31;58703;48.978;8.982;2023-05-19T07:41:00;16.80;59.48
71047;SHT31;58703;48.978;8.982;2023-05-19T07:43:26;17.36;57.75
71047;SHT31;58703;48.978;8.982;2023-05-19T07:45:54;17.28;57.23
71047;SHT31;58703;48.978;8.982;2023-05-19T07:48:21;17.50;56.69
71047;SHT31;58703;48.978;8.982;2023-05-19T07:50:49;17.63;57.50
71047;SHT31;58703;48.978;8.982;2023-05-19T07:53:15;17.36;57.83
71047;SHT31;58703;48.978;8.982;2023-05-19T07:55:42;17.42;57.34
71047;SHT31;58703;48.978;8.982;2023-05-19T07:58:07;16.94;58.32
71047;SHT31;58703;48.978;8.982;2023-05-19T08:00:33;16.94;58.67
71047;SHT31;58703;48.978;8.982;2023-05-19T08:02:58;16.60;58.33
71047;SHT31;58703;48.978;8.982;2023-05-19T08:05:24;16.91;58.69
71047;SHT31;58703;48.978;8.982;2023-05-19T08:07:55;16.68;59.00
71047;SHT31;58703;48.978;8.982;2023-05-19T08:10:22;17.00;58.83
71047;SHT31;58703;48.978;8.982;2023-05-19T08:12:49;16.95;57.84
71047;SHT31;58703;48.978;8.982;2023-05-19T08:15:16;16.75;57.93
71047;SHT31;58703;48.978;8.982;2023-05-19T08:17:43;16.24;59.11
71047;SHT31;58703;48.978;8.982;2023-05-19T08:20:10;16.07;59.43
71047;SHT31;58703;48.978;8.982;2023-05-19T08:22:39;16.09;59.67
71047;SHT31;58703;48.978;8.982;2023-05-19T08:25:05;16.17;59.99
71047;SHT31;58703;48.978;8.982;2023-05-19T08:27:32;15.85;61.25
71047;SHT31;58703;48.978;8.982;2023-05-19T08:29:58;15.69;61.03
71047;SHT31;58703;48.978;8.982;2023-05-19T08:32:24;15.95;60.58
71047;SHT31;58703;48.978;8.982;2023-05-19T08:34:49;15.55;60.29
71047;SHT31;58703;48.978;8.982;2023-05-19T08:37:15;16.02;60.09
71047;SHT31;58703;48.978;8.982;2023-05-19T08:39:42;15.95;60.25
71047;SHT31;58703;48.978;8.982;2023-05-19T08:42:09;16.31;60.35
71047;SHT31;58703;48.978;8.982;2023-05-19T08:44:37;16.43;60.14
71047;SHT31;58703;48.978;8.982;2023-05-19T08:47:04;16.43;59.98
71047;SHT31;58703;48.978;8.982;2023-05-19T08:49:32;16.23;59.54
71047;SHT31;58703;48.978;8.982;2023-05-19T08:52:06;15.95;60.82
71047;SHT31;58703;48.978;8.982;2023-05-19T08:55:03;16.14;61.16
71047;SHT31;58703;48.978;8.982;2023-05-19T08:57:32;16.58;59.21
71047;SHT31;58703;48.978;8.982;2023-05-19T08:59:59;16.20;60.24
71047;SHT31;58703;48.978;8.982;2023-05-19T09:02:27;16.36;59.87
71047;SHT31;58703;48.978;8.982;2023-05-19T09:04:54;16.57;59.16
71047;SHT31;58703;48.978;8.982;2023-05-19T09:07:21;16.71;59.20
71047;SHT31;58703;48.978;8.982;2023-05-19T09:09:49;17.00;58.44
71047;SHT31;58703;48.978;8.982;2023-05-19T09:12:16;16.74;58.96
71047;SHT31;58703;48.978;8.982;2023-05-19T09:14:43;17.00;58.44
71047;SHT31;58703;48.978;8.982;2023-05-19T09:17:10;17.16;57.64
71047;SHT31;58703;48.978;8.982;2023-05-19T09:19:41;16.77;58.65
71047;SHT31;58703;48.978;8.982;2023-05-19T09:22:08;17.11;58.23
71047;SHT31;58703;48.978;8.982;2023-05-19T09:24:35;17.29;58.43
71047;SHT31;58703;48.978;8.982;2023-05-19T09:27:04;17.18;58.08
71047;SHT31;58703;48.978;8.982;2023-05-19T09:29:32;17.60;58.02
71047;SHT31;58703;48.978;8.982;2023-05-19T09:31:57;17.97;57.11
71047;SHT31;58703;48.978;8.982;2023-05-19T09:34:28;18.04;56.41
71047;SHT31;58703;48.978;8.982;2023-05-19T09:36:55;17.87;56.97
71047;SHT31;58703;48.978;8.982;2023-05-19T09:39:23;18.07;57.36
71047;SHT31;58703;48.978;8.982;2023-05-19T09:41:52;17.31;57.54
71047;SHT31;58703;48.978;8.982;2023-05-19T09:44:25;17.65;57.80
71047;SHT31;58703;48.978;8.982;2023-05-19T09:46:55;17.72;57.78
71047;SHT31;58703;48.978;8.982;2023-05-19T09:49:23;17.93;56.76
71047;SHT31;58703;48.978;8.982;2023-05-19T09:51:58;17.21;58.61
71047;SHT31;58703;48.978;8.982;2023-05-19T09:54:25;17.25;58.34
71047;SHT31;58703;48.978;8.982;2023-05-19T09:56:58;16.72;59.48
71047;SHT31;58703;48.978;8.982;2023-05-19T09:59:25;16.56;59.58
71047;SHT31;58703;48.978;8.982;2023-05-19T10:01:54;16.81;59.59
71047;SHT31;58703;48.978;8.982;2023-05-19T10:04:22;16.84;60.04
71047;SHT31;58703;48.978;8.982;2023-05-19T10:06:52;16.47;60.69
71047;SHT31;58703;48.978;8.982;2023-05-19T10:09:22;16.65;59.49
71047;SHT31;58703;48.978;8.982;2023-05-19T10:11:51;17.26;59.70
71047;SHT31;58703;48.978;8.982;2023-05-19T10:14:21;17.49;58.82
71047;SHT31;58703;48.978;8.982;2023-05-19T10:16:54;17.52;58.48
71047;SHT31;58703;48.978;8.982;2023-05-19T10:19:21;16.40;59.73
71047;SHT31;58703;48.978;8.982;2023-05-19T10:21:49;16.58;60.31
71047;SHT31;58703;48.978;8.982;2023-05-19T10:24:15;16.78;59.45
71047;SHT31;58703;48.978;8.982;2023-05-19T10:27:07;16.82;59.72
71047;SHT31;58703;48.978;8.982;2023-05-19T10:29:36;16.78;59.56
71047;SHT31;58703;48.978;8.982;2023-05-19T10:32:10;16.75;59.38
71047;SHT31;58703;48.978;8.982;2023-05-19T10:41:01;16.61;59.55
71047;SHT31;58703;48.978;8.982;2023-05-19T10:46:11;16.67;61.37
71047;SHT31;58703;48.978;8.982;2023-05-19T10:48:43;17.15;59.16
71047;SHT31;58703;48.978;8.982;2023-05-19T10:51:09;17.04;59.42
71047;SHT31;58703;48.978;8.982;2023-05-19T10:53:40;17.56;58.31
71047;SHT31;58703;48.978;8.982;2023-05-19T10:56:27;17.33;58.58
71047;SHT31;58703;48.978;8.982;2023-05-19T10:59:00;17.04;59.04
71047;SHT31;58703;48.978;8.982;2023-05-19T11:01:34;16.61;58.68
71047;SHT31;58703;48.978;8.982;2023-05-19T11:04:10;16.63;60.30
71047;SHT31;58703;48.978;8.982;2023-05-19T11:06:37;16.50;60.99
71047;SHT31;58703;48.978;8.982;2023-05-19T11:14:14;16.10;61.14
71047;SHT31;58703;48.978;8.982;2023-05-19T11:16:44;16.47;60.94
71047;SHT31;58703;48.978;8.982;2023-05-19T11:19:28;16.80;59.28
71047;SHT31;58703;48.978;8.982;2023-05-19T11:21:57;16.40;60.40
71047;SHT31;58703;48.978;8.982;2023-05-19T11:24:42;16.43;60.54
71047;SHT31;58703;48.978;8.982;2023-05-19T11:27:31;16.20;59.90
71047;SHT31;58703;48.978;8.982;2023-05-19T11:30:00;16.48;60.30
71047;SHT31;58703;48.978;8.982;2023-05-19T11:32:31;16.43;60.39
71047;SHT31;58703;48.978;8.982;2023-05-19T11:35:01;16.46;60.60
71047;SHT31;58703;48.978;8.982;2023-05-19T11:37:31;16.70;60.21
71047;SHT31;58703;48.978;8.982;2023-05-19T11:40:00;16.71;60.28
71047;SHT31;58703;48.978;8.982;2023-05-19T11:42:27;16.87;59.44
71047;SHT31;58703;48.978;8.982;2023-05-19T11:44:56;16.43;60.62
71047;SHT31;58703;48.978;8.982;2023-05-19T11:47:23;16.68;59.92
71047;SHT31;58703;48.978;8.982;2023-05-19T11:49:50;16.70;59.79
71047;SHT31;58703;48.978;8.982;2023-05-19T11:52:26;15.79;61.56
71047;SHT31;58703;48.978;8.982;2023-05-19T11:54:51;16.10;61.73
71047;SHT31;58703;48.978;8.982;2023-05-19T11:57:18;16.10;61.62
71047;SHT31;58703;48.978;8.982;2023-05-19T11:59:45;16.00;62.32
71047;SHT31;58703;48.978;8.982;2023-05-19T12:02:23;15.88;62.16
71047;SHT31;58703;48.978;8.982;2023-05-19T12:04:50;16.41;61.50
71047;SHT31;58703;48.978;8.982;2023-05-19T12:07:23;15.89;62.88
71047;SHT31;58703;48.978;8.982;2023-05-19T12:09:50;15.89;62.37
71047;SHT31;58703;48.978;8.982;2023-05-19T12:12:19;15.96;62.07
71047;SHT31;58703;48.978;8.982;2023-05-19T12:14:51;15.86;62.42
71047;SHT31;58703;48.978;8.982;2023-05-19T12:17:19;15.81;62.86
71047;SHT31;58703;48.978;8.982;2023-05-19T12:19:47;16.03;62.77
71047;SHT31;58703;48.978;8.982;2023-05-19T12:22:14;15.92;63.36
71047;SHT31;58703;48.978;8.982;2023-05-19T12:24:42;16.33;62.63
71047;SHT31;58703;48.978;8.982;2023-05-19T12:27:19;16.71;61.68
71047;SHT31;58703;48.978;8.982;2023-05-19T12:29:53;16.92;61.65
71047;SHT31;58703;48.978;8.982;2023-05-19T12:32:25;16.92;61.60
71047;SHT31;58703;48.978;8.982;2023-05-19T12:34:54;16.94;60.77
71047;SHT31;58703;48.978;8.982;2023-05-19T12:37:20;16.34;61.93
71047;SHT31;58703;48.978;8.982;2023-05-19T12:39:47;16.44;62.20
71047;SHT31;58703;48.978;8.982;2023-05-19T12:42:15;16.46;62.60
71047;SHT31;58703;48.978;8.982;2023-05-19T12:44:48;16.36;61.79
71047;SHT31;58703;48.978;8.982;2023-05-19T12:47:19;16.09;62.56
71047;SHT31;58703;48.978;8.982;2023-05-19T12:50:05;16.12;62.24
71047;SHT31;58703;48.978;8.982;2023-05-19T12:52:45;16.31;62.21
71047;SHT31;58703;48.978;8.982;2023-05-19T12:55:13;16.34;62.34
71047;SHT31;58703;48.978;8.982;2023-05-19T12:57:41;16.13;62.71
71047;SHT31;58703;48.978;8.982;2023-05-19T13:00:18;16.10;62.90
71047;SHT31;58703;48.978;8.982;2023-05-19T13:03:07;15.99;63.14
71047;SHT31;58703;48.978;8.982;2023-05-19T13:05:36;16.12;63.30
71047;SHT31;58703;48.978;8.982;2023-05-19T13:08:12;16.00;63.12
71047;SHT31;58703;48.978;8.982;2023-05-19T13:10:40;15.93;63.42
71047;SHT31;58703;48.978;8.982;2023-05-19T13:13:09;16.03;63.30
71047;SHT31;58703;48.978;8.982;2023-05-19T13:15:37;15.90;63.47
71047;SHT31;58703;48.978;8.982;2023-05-19T13:18:05;15.49;64.11
71047;SHT31;58703;48.978;8.982;2023-05-19T13:20:31;15.97;63.34
71047;SHT31;58703;48.978;8.982;2023-05-19T13:23:00;16.09;63.66
71047;SHT31;58703;48.978;8.982;2023-05-19T13:25:27;16.14;62.98
71047;SHT31;58703;48.978;8.982;2023-05-19T13:27:54;15.89;63.27
71047;SHT31;58703;48.978;8.982;2023-05-19T13:30:23;15.95;63.61
71047;SHT31;58703;48.978;8.982;2023-05-19T13:32:49;16.09;63.48
71047;SHT31;58703;48.978;8.982;2023-05-19T13:35:18;16.14;63.40
71047;SHT31;58703;48.978;8.982;2023-05-19T13:37:45;16.44;63.24
71047;SHT31;58703;48.978;8.982;2023-05-19T13:40:12;16.74;62.73
71047;SHT31;58703;48.978;8.982;2023-05-19T13:42:39;16.41;62.83
71047;SHT31;58703;48.978;8.982;2023-05-19T13:45:06;16.27;63.30
71047;SHT31;58703;48.978;8.982;2023-05-19T13:47:33;16.46;62.70
71047;SHT31;58703;48.978;8.982;2023-05-19T13:50:02;16.50;62.78
71047;SHT31;58703;48.978;8.982;2023-05-19T13:52:28;16.07;62.52
71047;SHT31;58703;48.978;8.982;2023-05-19T13:54:55;15.88;62.67
71047;SHT31;58703;48.978;8.982;2023-05-19T13:57:24;15.93;63.17
71047;SHT31;58703;48.978;8.982;2023-05-19T13:59:51;15.99;62.75
71047;SHT31;58703;48.978;8.982;2023-05-19T14:02:16;16.13;62.73
71047;SHT31;58703;48.978;8.982;2023-05-19T14:04:43;16.09;62.35
71047;SHT31;58703;48.978;8.982;2023-05-19T14:07:11;16.30;62.77
71047;SHT31;58703;48.978;8.982;2023-05-19T14:09:38;16.54;61.74
71047;SHT31;58703;48.978;8.982;2023-05-19T14:12:04;16.50;62.27
71047;SHT31;58703;48.978;8.982;2023-05-19T14:14:31;16.60;62.24
71047;SHT31;58703;48.978;8.982;2023-05-19T14:16:57;16.41;62.75
71047;SHT31;58703;48.978;8.982;2023-05-19T14:19:22;16.21;63.07
71047;SHT31;58703;48.978;8.982;2023-05-19T14:21:49;16.39;62.42
71047;SHT31;58703;48.978;8.982;2023-05-19T14:24:16;16.13;63.24
71047;SHT31;58703;48.978;8.982;2023-05-19T14:26:43;15.99;63.55
71047;SHT31;58703;48.978;8.982;2023-05-19T14:29:09;16.10;63.20
71047;SHT31;58703;48.978;8.982;2023-05-19T14:31:35;16.00;63.42
71047;SHT31;58703;48.978;8.982;2023-05-19T14:34:02;15.96;64.12
71047;SHT31;58703;48.978;8.982;2023-05-19T14:36:28;15.75;63.98
71047;SHT31;58703;48.978;8.982;2023-05-19T14:38:54;15.93;63.72
71047;SHT31;58703;48.978;8.982;2023-05-19T14:41:21;15.95;63.96
71047;SHT31;58703;48.978;8.982;2023-05-19T14:43:47;15.88;63.69
71047;SHT31;58703;48.978;8.982;2023-05-19T14:46:14;15.79;64.63
71047;SHT31;58703;48.978;8.982;2023-05-19T14:48:40;15.89;63.85
71047;SHT31;58703;48.978;8.982;2023-05-19T14:51:05;15.92;63.87
71047;SHT31;58703;48.978;8.982;2023-05-19T14:53:32;15.88;64.33
71047;SHT31;58703;48.978;8.982;2023-05-19T14:55:58;16.17;64.17
71047;SHT31;58703;48.978;8.982;2023-05-19T14:58:24;16.27;63.82
71047;SHT31;58703;48.978;8.982;2023-05-19T15:00:50;16.21;63.50
71047;SHT31;58703;48.978;8.982;2023-05-19T15:03:17;16.19;63.61
71047;SHT31;58703;48.978;8.982;2023-05-19T15:05:42;16.44;63.51
71047;SHT31;58703;48.978;8.982;2023-05-19T15:08:09;16.81;62.66
71047;SHT31;58703;48.978;8.982;2023-05-19T15:10:36;17.02;62.28
71047;SHT31;58703;48.978;8.982;2023-05-19T15:13:02;17.02;61.41
71047;SHT31;58703;48.978;8.982;2023-05-19T15:15:28;17.14;61.98
71047;SHT31;58703;48.978;8.982;2023-05-19T15:17:54;17.38;61.92
71047;SHT31;58703;48.978;8.982;2023-05-19T15:20:20;17.63;60.54
71047;SHT31;58703;48.978;8.982;2023-05-19T15:22:47;17.38;61.08
71047;SHT31;58703;48.978;8.982;2023-05-19T15:25:14;17.49;60.54
71047;SHT31;58703;48.978;8.982;2023-05-19T15:27:41;17.57;60.12
71047;SHT31;58703;48.978;8.982;2023-05-19T15:30:08;17.47;60.60
71047;SHT31;58703;48.978;8.982;2023-05-19T15:32:33;17.42;60.55
71047;SHT31;58703;48.978;8.982;2023-05-19T15:34:59;17.52;60.89
71047;SHT31;58703;48.978;8.982;2023-05-19T15:37:24;17.57;60.44
71047;SHT31;58703;48.978;8.982;2023-05-19T15:39:51;17.72;60.26
71047;SHT31;58703;48.978;8.982;2023-05-19T15:42:16;17.87;60.10
71047;SHT31;58703;48.978;8.982;2023-05-19T15:44:43;18.10;59.77
71047;SHT31;58703;48.978;8.982;2023-05-19T15:47:11;18.35;59.03
71047;SHT31;58703;48.978;8.982;2023-05-19T15:49:38;18.00;58.66
71047;SHT31;58703;48.978;8.982;2023-05-19T15:52:05;17.66;60.35
71047;SHT31;58703;48.978;8.982;2023-05-19T15:54:32;17.89;59.58
71047;SHT31;58703;48.978;8.982;2023-05-19T15:56:59;17.66;60.21
71047;SHT31;58703;48.978;8.982;2023-05-19T15:59:24;17.50;61.19
71047;SHT31;58703;48.978;8.982;2023-05-19T16:01:50;17.93;60.11
71047;SHT31;58703;48.978;8.982;2023-05-19T16:04:17;17.52;60.26
71047;SHT31;58703;48.978;8.982;2023-05-19T16:06:44;17.46;61.16